Time;durP1;ratioP1;P1;durP2;ratioP2;P2;SDS_P1;SDS_P2;PMS_P1;PMS_P2;Temp;Humidity;BMP_temperature;BMP_pressure;BME280_temperature;BME280_humidity;BME280_pressure;Samples;Min_cycle;Max_cycle;Signal;HPM_P1;HPM_P2
2022/09/08 00:00:20;;;;;;;1.80;1.70;;;21.30;64.70;;;;;;957451;146;27324;-75
2022/09/08 00:02:46;;;;;;;1.87;1.50;;;21.40;64.80;;;;;;953518;148;27267;-75
2022/09/08 00:05:13;;;;;;;1.32;1.22;;;21.40;64.80;;;;;;957658;146;27411;-76
2022/09/08 00:07:42;;;;;;;1.67;1.57;;;21.40;64.80;;;;;;954130;148;27368;-77
2022/09/08 00:10:07;;;;;;;1.50;1.40;;;21.40;64.90;;;;;;954609;146;27354;-75
2022/09/08 00:12:34;;;;;;;1.52;1.42;;;21.40;64.90;;;;;;948019;148;27290;-75
2022/09/08 00:14:59;;;;;;;2.30;1.80;;;21.40;64.90;;;;;;945602;149;27365;-75
2022/09/08 00:17:26;;;;;;;1.30;1.20;;;21.40;65.00;;;;;;944766;149;27424;-75
2022/09/08 00:19:53;;;;;;;1.20;1.20;;;21.40;65.00;;;;;;943726;147;27316;-76
2022/09/08 00:22:19;;;;;;;2.37;1.75;;;21.40;65.20;;;;;;945413;149;27346;-75
2022/09/08 00:24:46;;;;;;;1.92;1.72;;;21.40;65.20;;;;;;943092;149;27414;-75
2022/09/08 00:27:12;;;;;;;1.82;1.70;;;21.50;65.30;;;;;;943036;147;27443;-75
2022/09/08 00:29:39;;;;;;;1.60;1.50;;;21.50;65.50;;;;;;943880;147;27437;-76
2022/09/08 00:32:06;;;;;;;3.37;1.70;;;21.50;65.70;;;;;;944782;146;27733;-76
2022/09/08 00:34:34;;;;;;;2.02;1.52;;;21.50;65.90;;;;;;944335;150;27372;-75
2022/09/08 00:36:59;;;;;;;2.02;1.62;;;21.50;65.90;;;;;;946914;147;27360;-75
2022/09/08 00:39:25;;;;;;;1.62;1.52;;;21.50;66.10;;;;;;944513;147;27401;-75
2022/09/08 00:41:52;;;;;;;2.15;1.82;;;21.50;66.20;;;;;;945087;147;27408;-75
2022/09/08 00:44:40;;;;;;;1.65;1.45;;;21.40;66.40;;;;;;943796;149;27452;-75
2022/09/08 00:47:07;;;;;;;3.98;1.82;;;21.40;66.90;;;;;;946118;147;27428;-76
2022/09/08 00:49:33;;;;;;;1.72;1.55;;;21.40;67.10;;;;;;942822;147;27363;-77
2022/09/08 00:52:00;;;;;;;1.70;1.55;;;21.30;67.60;;;;;;943364;149;27372;-76
2022/09/08 00:54:26;;;;;;;1.60;1.50;;;21.30;68.20;;;;;;945638;147;27632;-76
2022/09/08 00:56:53;;;;;;;1.70;1.60;;;21.30;68.50;;;;;;945074;147;27327;-75
2022/09/08 00:59:20;;;;;;;1.90;1.80;;;21.20;69.00;;;;;;944250;149;27323;-76
2022/09/08 01:01:46;;;;;;;2.33;1.90;;;21.20;69.20;;;;;;943826;147;27460;-77
2022/09/08 01:04:13;;;;;;;3.40;1.92;;;21.20;69.70;;;;;;942422;149;27375;-76
2022/09/08 01:12:45;;;;;;;1.95;1.75;;;21.10;70.60;;;;;;943958;149;27458;-76
2022/09/08 01:15:21;;;;;;;3.08;1.77;;;21.00;70.90;;;;;;942875;147;27414;-76
2022/09/08 01:17:47;;;;;;;2.02;1.80;;;21.00;71.30;;;;;;944266;150;27697;-77
2022/09/08 01:20:13;;;;;;;1.70;1.50;;;20.90;71.50;;;;;;944650;147;28801;-75
2022/09/08 01:22:58;;;;;;;2.33;1.52;;;20.90;72.10;;;;;;943981;147;27347;-76
2022/09/08 01:25:27;;;;;;;1.72;1.62;;;20.90;72.40;;;;;;944781;147;27304;-76
2022/09/08 01:27:51;;;;;;;1.65;1.55;;;20.90;72.50;;;;;;942817;147;27355;-76
2022/09/08 01:30:18;;;;;;;1.72;1.62;;;20.90;72.90;;;;;;944310;149;27335;-77
2022/09/08 01:32:45;;;;;;;1.70;1.60;;;20.80;73.20;;;;;;944147;147;27360;-75
2022/09/08 01:35:11;;;;;;;1.60;1.42;;;20.80;73.50;;;;;;943249;149;27376;-76
2022/09/08 01:37:38;;;;;;;2.22;1.42;;;20.80;73.80;;;;;;940958;147;27334;-76
2022/09/08 01:40:04;;;;;;;1.77;1.52;;;20.80;74.00;;;;;;945652;147;27368;-75
2022/09/08 01:42:31;;;;;;;1.75;1.65;;;20.80;74.30;;;;;;945216;147;27504;-76
2022/09/08 01:44:58;;;;;;;1.50;1.40;;;20.80;74.50;;;;;;945170;149;27363;-77
2022/09/08 01:47:24;;;;;;;1.77;1.47;;;20.80;74.90;;;;;;943599;150;27356;-75
2022/09/08 01:49:51;;;;;;;2.05;1.82;;;20.80;75.10;;;;;;945280;147;27363;-76
2022/09/08 01:52:17;;;;;;;2.70;1.77;;;20.80;75.60;;;;;;942673;147;27430;-75
2022/09/08 01:54:44;;;;;;;2.08;1.62;;;20.80;75.90;;;;;;944069;147;27403;-76
2022/09/08 01:57:11;;;;;;;1.50;1.50;;;20.80;76.10;;;;;;944402;147;27339;-77
2022/09/08 01:59:37;;;;;;;2.50;1.65;;;20.70;76.20;;;;;;943888;147;27356;-77
2022/09/08 02:02:04;;;;;;;1.90;1.80;;;20.70;76.70;;;;;;945591;147;28200;-75
2022/09/08 02:04:30;;;;;;;1.72;1.62;;;20.70;76.90;;;;;;943656;147;27363;-76
2022/09/08 02:06:57;;;;;;;2.58;2.17;;;20.70;77.50;;;;;;944449;146;27270;-75
2022/09/08 02:09:23;;;;;;;1.92;1.82;;;20.70;77.70;;;;;;944601;147;27368;-77
2022/09/08 02:11:51;;;;;;;1.80;1.70;;;20.70;78.20;;;;;;945915;147;27475;-75
2022/09/08 02:14:17;;;;;;;2.67;2.00;;;20.70;78.80;;;;;;938211;147;27422;-76
2022/09/08 02:16:43;;;;;;;1.70;1.60;;;20.60;79.00;;;;;;934704;148;27344;-75
2022/09/08 02:19:10;;;;;;;2.15;1.90;;;20.60;80.40;;;;;;935594;149;27394;-76
2022/09/08 02:21:36;;;;;;;1.80;1.70;;;20.60;80.10;;;;;;936672;151;27323;-76
2022/09/08 02:24:04;;;;;;;1.98;1.87;;;20.60;80.50;;;;;;935155;149;27375;-77
2022/09/08 02:26:30;;;;;;;3.15;1.90;;;20.60;80.80;;;;;;935618;149;27361;-75
2022/09/08 02:28:57;;;;;;;2.55;2.00;;;20.50;81.30;;;;;;937625;148;27342;-75
2022/09/08 02:31:23;;;;;;;2.65;2.10;;;20.50;81.60;;;;;;937507;149;27344;-76
2022/09/08 02:33:49;;;;;;;3.12;2.08;;;20.50;82.30;;;;;;934731;151;27389;-79
2022/09/08 02:36:16;;;;;;;2.50;2.30;;;20.50;82.80;;;;;;936275;149;27336;-79
2022/09/08 02:38:43;;;;;;;2.83;2.20;;;20.50;83.20;;;;;;935266;148;27343;-79
2022/09/08 02:41:10;;;;;;;2.80;2.12;;;20.50;83.60;;;;;;934447;149;27968;-79
2022/09/08 02:43:36;;;;;;;6.78;4.40;;;20.40;83.90;;;;;;935753;150;27981;-78
2022/09/08 02:46:02;;;;;;;9.88;4.55;;;20.40;84.20;;;;;;935115;150;27314;-78
2022/09/08 02:48:30;;;;;;;10.05;5.92;;;20.40;84.60;;;;;;934979;149;27327;-78
2022/09/08 02:50:55;;;;;;;6.40;3.87;;;20.40;85.30;;;;;;937924;148;27441;-77
2022/09/08 02:53:22;;;;;;;2.80;2.50;;;20.40;86.00;;;;;;934530;151;27363;-78
2022/09/08 02:55:49;;;;;;;2.85;2.45;;;20.40;86.60;;;;;;937005;148;27267;-79
2022/09/08 02:58:15;;;;;;;2.55;2.35;;;20.40;87.20;;;;;;936719;148;27388;-79
2022/09/08 03:00:42;;;;;;;4.87;2.12;;;20.30;87.80;;;;;;936386;149;27343;-78
2022/09/08 03:03:08;;;;;;;2.72;2.45;;;20.30;88.30;;;;;;935114;149;27365;-79
2022/09/08 03:05:35;;;;;;;3.33;2.62;;;20.30;88.70;;;;;;935962;149;27366;-79
2022/09/08 03:08:03;;;;;;;5.00;2.20;;;20.30;89.40;;;;;;935917;151;27334;-79
2022/09/08 03:10:28;;;;;;;2.40;2.20;;;20.30;90.00;;;;;;934394;148;27344;-79
2022/09/08 03:12:55;;;;;;;2.85;2.27;;;20.20;90.20;;;;;;937575;148;27354;-79
2022/09/08 03:15:21;;;;;;;10.20;2.77;;;20.20;90.30;;;;;;936276;148;27335;-78
2022/09/08 03:17:48;;;;;;;2.50;2.20;;;20.20;90.70;;;;;;934848;150;27782;-79
2022/09/08 03:20:15;;;;;;;2.02;1.90;;;20.20;90.90;;;;;;934936;149;28706;-78
2022/09/08 03:22:41;;;;;;;5.30;2.85;;;20.20;91.20;;;;;;936227;149;27372;-78
2022/09/08 03:25:08;;;;;;;2.33;2.12;;;20.20;91.20;;;;;;935854;149;27324;-78
2022/09/08 03:27:35;;;;;;;3.65;2.30;;;20.20;91.40;;;;;;935297;150;27954;-78
2022/09/08 03:30:01;;;;;;;2.30;2.15;;;20.20;91.50;;;;;;935876;148;27391;-78
2022/09/08 03:32:28;;;;;;;2.30;2.12;;;20.20;91.80;;;;;;934516;150;27465;-78
2022/09/08 03:34:55;;;;;;;2.10;2.00;;;20.10;92.00;;;;;;937441;148;27428;-78
2022/09/08 03:37:21;;;;;;;2.77;2.25;;;20.10;92.20;;;;;;934746;149;27308;-78
2022/09/08 03:39:47;;;;;;;2.60;2.33;;;20.10;92.20;;;;;;935659;149;27884;-78
2022/09/08 03:42:16;;;;;;;4.28;2.60;;;20.10;92.40;;;;;;935318;151;27339;-78
2022/09/08 03:44:40;;;;;;;3.10;2.75;;;20.10;92.50;;;;;;935563;150;27445;-79
2022/09/08 03:47:07;;;;;;;3.47;2.75;;;20.10;92.80;;;;;;936074;148;27351;-79
2022/09/08 03:49:34;;;;;;;5.62;2.60;;;20.10;93.00;;;;;;934860;148;27328;-78
2022/09/08 03:52:01;;;;;;;4.60;3.25;;;20.10;93.20;;;;;;935223;148;27857;-78
2022/09/08 03:57:11;;;;;;;3.27;2.52;;;20.10;93.50;;;;;;937124;150;27474;-78
2022/09/08 03:59:38;;;;;;;3.55;2.62;;;20.10;93.40;;;;;;934333;149;27454;-78
2022/09/08 04:02:05;;;;;;;2.50;2.30;;;20.10;93.40;;;;;;936268;149;27298;-79
2022/09/08 04:04:31;;;;;;;4.17;2.90;;;20.10;93.30;;;;;;935507;149;27330;-78
2022/09/08 04:06:58;;;;;;;2.55;2.35;;;20.10;93.00;;;;;;937508;151;27271;-78
2022/09/08 04:09:24;;;;;;;2.67;2.47;;;20.10;93.40;;;;;;935714;149;27901;-78
2022/09/08 04:11:51;;;;;;;2.20;2.10;;;20.10;93.40;;;;;;934380;150;27338;-78
2022/09/08 04:14:18;;;;;;;2.45;2.20;;;20.00;93.40;;;;;;934783;149;27372;-78
2022/09/08 04:16:44;;;;;;;3.25;2.50;;;20.00;93.40;;;;;;942722;149;27306;-78
2022/09/08 04:19:11;;;;;;;2.12;1.90;;;20.00;93.40;;;;;;943857;147;27332;-78
2022/09/08 04:21:37;;;;;;;4.53;2.20;;;20.00;93.50;;;;;;942739;149;27446;-78
2022/09/08 04:24:04;;;;;;;2.58;2.10;;;20.00;93.60;;;;;;942932;149;27326;-79
2022/09/08 04:26:31;;;;;;;3.40;2.22;;;19.90;93.60;;;;;;944733;149;27440;-78
2022/09/08 04:28:57;;;;;;;2.08;1.98;;;19.90;93.60;;;;;;943631;147;27280;-79
2022/09/08 04:31:24;;;;;;;2.55;2.20;;;19.90;93.60;;;;;;943593;147;27328;-78
2022/09/08 04:33:50;;;;;;;2.50;2.05;;;19.90;93.70;;;;;;945573;149;27685;-78
2022/09/08 04:36:17;;;;;;;4.03;2.27;;;19.90;93.80;;;;;;944351;147;28607;-78
2022/09/08 04:38:43;;;;;;;2.35;1.95;;;19.90;94.00;;;;;;944829;147;27687;-79
2022/09/08 04:41:10;;;;;;;2.90;2.00;;;19.80;94.00;;;;;;944172;147;27332;-78
2022/09/08 04:43:37;;;;;;;2.65;2.27;;;19.80;94.50;;;;;;942336;147;27596;-78
2022/09/08 04:46:03;;;;;;;2.00;1.90;;;19.80;94.30;;;;;;943858;149;27359;-78
2022/09/08 04:48:30;;;;;;;2.45;2.25;;;19.80;94.40;;;;;;942263;147;27372;-78
2022/09/08 04:50:56;;;;;;;2.20;2.10;;;19.70;94.50;;;;;;943026;147;27334;-78
2022/09/08 04:53:23;;;;;;;2.10;2.00;;;19.70;94.50;;;;;;945011;147;27352;-79
2022/09/08 04:55:50;;;;;;;2.05;1.87;;;19.70;94.60;;;;;;944483;147;27271;-78
2022/09/08 04:58:17;;;;;;;2.08;1.98;;;19.70;94.60;;;;;;944450;147;27451;-79
2022/09/08 05:00:43;;;;;;;2.65;2.35;;;19.70;94.70;;;;;;942680;147;27426;-78
2022/09/08 05:03:09;;;;;;;2.08;1.87;;;19.70;94.80;;;;;;944806;149;28365;-79
2022/09/08 05:05:36;;;;;;;2.77;2.12;;;19.70;94.70;;;;;;945230;149;27252;-79
2022/09/08 05:08:03;;;;;;;2.20;1.77;;;19.70;94.70;;;;;;944042;147;27484;-79
2022/09/08 05:10:32;;;;;;;2.00;1.90;;;19.60;94.70;;;;;;941823;149;27349;-79
2022/09/08 05:12:56;;;;;;;2.67;2.00;;;19.70;94.70;;;;;;944487;148;27292;-78
2022/09/08 05:15:23;;;;;;;1.90;1.70;;;19.70;94.70;;;;;;948902;148;27567;-78
2022/09/08 05:17:49;;;;;;;1.60;1.47;;;19.60;94.80;;;;;;954243;145;27376;-79
2022/09/08 05:20:16;;;;;;;1.40;1.30;;;19.60;94.80;;;;;;955932;146;27301;-79
2022/09/08 05:22:43;;;;;;;3.47;1.75;;;19.60;95.00;;;;;;956932;146;27697;-79
2022/09/08 05:25:09;;;;;;;2.08;1.90;;;19.60;95.10;;;;;;954012;145;27397;-79
2022/09/08 05:27:36;;;;;;;1.60;1.50;;;19.50;95.30;;;;;;953763;145;27357;-78
2022/09/08 05:30:02;;;;;;;2.37;1.70;;;19.50;95.30;;;;;;955641;145;27417;-79
2022/09/08 05:32:29;;;;;;;2.40;1.50;;;19.50;95.40;;;;;;955462;145;27341;-79
2022/09/08 05:34:56;;;;;;;3.83;1.72;;;19.50;95.50;;;;;;954109;146;27398;-79
2022/09/08 05:37:22;;;;;;;2.47;1.40;;;19.50;95.60;;;;;;955571;146;27262;-79
2022/09/08 05:39:49;;;;;;;4.30;2.00;;;19.50;95.90;;;;;;955599;146;27415;-77
2022/09/08 05:42:15;;;;;;;2.02;1.82;;;19.50;96.00;;;;;;954525;146;27434;-78
2022/09/08 05:44:42;;;;;;;1.85;1.62;;;19.50;96.10;;;;;;957821;146;27373;-79
2022/09/08 05:47:09;;;;;;;2.35;2.15;;;19.50;96.20;;;;;;954960;145;27427;-77
2022/09/08 05:49:35;;;;;;;1.80;1.70;;;19.50;96.30;;;;;;954038;145;27302;-78
2022/09/08 05:52:02;;;;;;;2.37;1.90;;;19.50;96.50;;;;;;954175;148;27426;-78
2022/09/08 05:54:28;;;;;;;1.95;1.82;;;19.50;96.60;;;;;;954853;146;27330;-79
2022/09/08 05:56:55;;;;;;;2.50;2.10;;;19.50;96.80;;;;;;955367;145;27337;-79
2022/09/08 05:59:21;;;;;;;2.45;2.17;;;19.50;96.90;;;;;;955123;146;27407;-79
2022/09/08 06:01:48;;;;;;;3.17;2.25;;;19.50;97.00;;;;;;954757;148;27331;-78
2022/09/08 06:04:18;;;;;;;2.30;2.00;;;19.50;97.10;;;;;;956298;148;27425;-78
2022/09/08 06:06:44;;;;;;;3.90;2.05;;;19.50;97.20;;;;;;955023;148;27493;-78
2022/09/08 06:09:12;;;;;;;3.15;2.52;;;19.50;97.30;;;;;;955182;146;27374;-78
2022/09/08 06:11:37;;;;;;;2.35;2.15;;;19.50;97.40;;;;;;956431;145;27268;-77
2022/09/08 06:14:05;;;;;;;2.75;1.82;;;19.50;97.60;;;;;;955235;146;27403;-78
2022/09/08 06:16:30;;;;;;;3.15;2.15;;;19.50;97.70;;;;;;949341;147;27508;-78
2022/09/08 06:18:57;;;;;;;2.08;1.90;;;19.60;97.90;;;;;;942923;147;27468;-78
2022/09/08 06:21:23;;;;;;;1.60;1.50;;;19.60;97.90;;;;;;943865;149;27324;-78
2022/09/08 06:23:50;;;;;;;3.25;1.87;;;19.60;97.90;;;;;;942095;147;27339;-78
2022/09/08 06:26:35;;;;;;;3.87;2.15;;;19.60;97.70;;;;;;946831;147;27338;-78
2022/09/08 06:29:20;;;;;;;3.37;1.92;;;19.60;97.90;;;;;;943638;147;27339;-78
2022/09/08 06:31:58;;;;;;;1.75;1.65;;;19.60;97.30;;;;;;942734;147;27470;-78
2022/09/08 06:34:26;;;;;;;2.92;1.67;;;19.60;97.20;;;;;;943618;147;27471;-78
2022/09/08 06:36:51;;;;;;;4.60;1.67;;;19.50;97.10;;;;;;943701;149;28026;-78
2022/09/08 06:39:18;;;;;;;2.05;1.67;;;19.50;97.30;;;;;;943099;147;27324;-78
2022/09/08 06:41:47;;;;;;;1.72;1.62;;;19.50;97.50;;;;;;943782;147;27788;-78
2022/09/08 06:44:16;;;;;;;2.62;2.08;;;19.50;97.80;;;;;;942884;149;27387;-78
2022/09/08 06:46:41;;;;;;;2.42;1.87;;;19.50;97.90;;;;;;944409;149;27467;-78
2022/09/08 06:49:07;;;;;;;2.02;1.80;;;19.50;98.10;;;;;;942554;147;27344;-78
2022/09/08 06:51:42;;;;;;;2.40;1.75;;;19.50;98.30;;;;;;941828;147;27410;-78
2022/09/08 06:54:09;;;;;;;2.08;1.90;;;19.50;98.60;;;;;;943142;147;27271;-78
2022/09/08 06:56:51;;;;;;;2.42;1.60;;;19.50;98.60;;;;;;944663;147;27358;-78
2022/09/08 06:59:19;;;;;;;1.62;1.55;;;19.60;98.50;;;;;;944498;147;27370;-78
2022/09/08 07:01:52;;;;;;;1.92;1.82;;;19.60;98.70;;;;;;943341;150;27450;-77
2022/09/08 07:04:55;;;;;;;1.57;1.45;;;19.60;98.90;;;;;;944699;147;27362;-78
2022/09/08 07:07:24;;;;;;;1.80;1.70;;;19.60;99.10;;;;;;943458;148;27425;-78
2022/09/08 07:09:59;;;;;;;1.85;1.72;;;19.70;98.90;;;;;;943134;147;27321;-79
2022/09/08 07:12:44;;;;;;;1.60;1.50;;;19.70;99.10;;;;;;941943;147;27399;-79
2022/09/08 07:15:44;;;;;;;2.42;2.00;;;19.80;99.10;;;;;;944417;147;27403;-78
2022/09/08 07:18:17;;;;;;;1.85;1.75;;;19.80;99.00;;;;;;953594;146;27386;-78
2022/09/08 07:20:43;;;;;;;2.12;1.90;;;19.90;99.00;;;;;;956000;148;27332;-77
2022/09/08 07:23:10;;;;;;;1.90;1.80;;;19.90;99.20;;;;;;954298;146;27364;-78
2022/09/08 07:25:39;;;;;;;1.47;1.37;;;19.90;99.20;;;;;;954383;148;27385;-78
2022/09/08 07:28:06;;;;;;;1.67;1.57;;;20.00;99.30;;;;;;953286;146;27598;-78
2022/09/08 07:30:32;;;;;;;1.30;1.30;;;20.00;99.30;;;;;;953158;145;27302;-78
2022/09/08 07:32:59;;;;;;;1.52;1.42;;;20.10;99.30;;;;;;954295;145;27446;-78
2022/09/08 07:35:35;;;;;;;1.40;1.30;;;20.10;99.40;;;;;;953230;146;27433;-78
2022/09/08 07:38:02;;;;;;;2.00;1.55;;;20.20;99.50;;;;;;953471;146;27968;-78
2022/09/08 07:40:40;;;;;;;1.02;1.02;;;20.20;99.20;;;;;;954220;146;27328;-78
2022/09/08 07:43:13;;;;;;;1.50;1.40;;;20.30;99.20;;;;;;957361;148;27400;-78
2022/09/08 07:45:48;;;;;;;1.57;1.40;;;20.30;99.20;;;;;;955800;148;27429;-78
2022/09/08 07:48:33;;;;;;;1.50;1.40;;;20.40;99.30;;;;;;931647;145;28013;-78
2022/09/08 07:51:02;;;;;;;1.70;1.60;;;20.40;99.20;;;;;;954488;148;27453;-78
2022/09/08 07:53:46;;;;;;;3.27;1.77;;;20.50;99.10;;;;;;953589;145;27378;-78
2022/09/08 07:56:22;;;;;;;2.05;1.90;;;20.60;99.10;;;;;;953999;146;27312;-78
2022/09/08 07:59:19;;;;;;;1.82;1.60;;;20.60;98.90;;;;;;955242;145;27346;-78
2022/09/08 08:01:57;;;;;;;1.62;1.52;;;20.60;99.00;;;;;;953739;145;27365;-78
2022/09/08 08:04:38;;;;;;;1.50;1.40;;;20.70;98.80;;;;;;954449;148;27382;-79
2022/09/08 08:07:05;;;;;;;1.62;1.52;;;20.80;99.00;;;;;;955885;145;27294;-79
2022/09/08 08:09:37;;;;;;;1.35;1.27;;;20.90;99.20;;;;;;954969;146;27321;-79
2022/09/08 08:12:16;;;;;;;1.65;1.50;;;20.90;99.10;;;;;;956752;146;27365;-79
2022/09/08 08:14:46;;;;;;;1.95;1.60;;;21.00;99.00;;;;;;952440;146;27338;-78
2022/09/08 08:17:24;;;;;;;1.52;1.42;;;21.10;98.80;;;;;;952051;148;27352;-78
2022/09/08 08:20:06;;;;;;;1.40;1.30;;;21.20;98.70;;;;;;943477;147;27296;-78
2022/09/08 08:22:55;;;;;;;1.30;1.20;;;21.30;98.70;;;;;;942508;147;27350;-78
2022/09/08 08:25:24;;;;;;;1.60;1.37;;;21.40;98.10;;;;;;942436;149;27456;-78
2022/09/08 08:27:52;;;;;;;2.08;1.25;;;21.50;97.80;;;;;;942895;147;27442;-78
2022/09/08 08:30:22;;;;;;;2.45;1.20;;;21.60;97.30;;;;;;941480;147;27315;-78
2022/09/08 08:32:57;;;;;;;1.30;1.20;;;21.80;97.10;;;;;;943645;147;27350;-78
2022/09/08 08:35:44;;;;;;;2.05;1.67;;;21.90;97.00;;;;;;943184;147;27320;-78
2022/09/08 08:38:25;;;;;;;2.72;1.02;;;22.00;96.90;;;;;;943580;147;27448;-78
2022/09/08 08:40:56;;;;;;;1.40;1.30;;;22.10;96.60;;;;;;942892;147;27338;-78
2022/09/08 08:43:33;;;;;;;1.17;1.07;;;22.20;96.40;;;;;;944195;149;27472;-79
2022/09/08 08:46:18;;;;;;;1.42;1.25;;;22.40;96.10;;;;;;938970;149;27379;-79
2022/09/08 08:48:47;;;;;;;1.02;1.00;;;22.50;95.80;;;;;;943798;147;27344;-78
2022/09/08 08:51:14;;;;;;;0.80;0.80;;;22.70;95.60;;;;;;943312;147;27335;-79
2022/09/08 08:53:59;;;;;;;0.80;0.80;;;22.90;95.60;;;;;;942022;149;27369;-79
2022/09/08 08:56:30;;;;;;;0.78;0.78;;;23.20;95.80;;;;;;945010;149;27359;-79
2022/09/08 08:59:04;;;;;;;0.80;0.70;;;23.50;95.60;;;;;;934605;147;27403;-79
2022/09/08 09:02:01;;;;;;;1.27;0.90;;;23.80;95.10;;;;;;943180;149;27328;-78
2022/09/08 09:04:27;;;;;;;0.70;0.70;;;24.10;93.80;;;;;;944171;149;27301;-78
2022/09/08 09:07:12;;;;;;;0.80;0.80;;;24.50;93.10;;;;;;943364;147;27378;-79
2022/09/08 09:09:53;;;;;;;1.05;0.80;;;24.70;92.00;;;;;;943517;147;27376;-79
2022/09/08 09:12:25;;;;;;;0.80;0.80;;;25.10;91.90;;;;;;944017;147;27372;-78
2022/09/08 09:15:07;;;;;;;0.60;0.60;;;25.40;90.80;;;;;;942774;147;27326;-79
2022/09/08 09:17:39;;;;;;;0.98;0.55;;;25.70;90.00;;;;;;944935;149;27334;-79
2022/09/08 09:20:15;;;;;;;0.62;0.62;;;26.00;88.20;;;;;;942050;147;27453;-79
2022/09/08 09:22:54;;;;;;;0.75;0.75;;;26.40;87.40;;;;;;943266;149;27413;-80
2022/09/08 09:25:27;;;;;;;0.60;0.60;;;27.00;90.40;;;;;;944158;149;27639;-80
2022/09/08 09:27:58;;;;;;;0.85;0.82;;;27.70;91.60;;;;;;944022;147;27289;-80
2022/09/08 09:30:37;;;;;;;0.62;0.62;;;28.50;90.70;;;;;;944857;149;27373;-79
2022/09/08 09:33:12;;;;;;;0.65;0.65;;;29.30;87.50;;;;;;927902;150;27448;-80
2022/09/08 09:35:47;;;;;;;0.40;0.40;;;30.20;80.60;;;;;;943318;147;27338;-80
2022/09/08 09:38:32;;;;;;;1.10;0.70;;;30.80;77.80;;;;;;937296;147;27329;-80
2022/09/08 09:41:23;;;;;;;0.98;0.65;;;31.30;73.20;;;;;;941492;149;27831;-79
2022/09/08 09:43:53;;;;;;;1.05;0.70;;;31.60;69.10;;;;;;944533;148;27360;-79
2022/09/08 09:46:52;;;;;;;1.17;0.60;;;31.70;65.70;;;;;;941366;148;27375;-79
2022/09/08 09:49:37;;;;;;;1.27;0.82;;;31.60;63.10;;;;;;941880;147;27963;-80
2022/09/08 09:52:25;;;;;;;0.85;0.60;;;31.30;61.80;;;;;;942135;147;27360;-80
2022/09/08 09:55:07;;;;;;;0.90;0.62;;;30.90;61.40;;;;;;942942;149;27357;-79
2022/09/08 09:57:34;;;;;;;1.37;0.78;;;30.60;61.40;;;;;;942391;149;27329;-80
2022/09/08 10:00:23;;;;;;;0.40;0.40;;;30.20;62.20;;;;;;942025;147;27307;-80
2022/09/08 10:02:51;;;;;;;0.37;0.37;;;30.10;62.20;;;;;;943267;149;27337;-80
2022/09/08 10:05:38;;;;;;;2.15;0.70;;;29.80;61.70;;;;;;942779;149;27420;-79
2022/09/08 10:08:23;;;;;;;0.62;0.62;;;29.40;61.10;;;;;;944373;147;27451;-80
2022/09/08 10:10:58;;;;;;;1.98;0.62;;;29.10;61.00;;;;;;944116;149;27367;-79
2022/09/08 10:13:31;;;;;;;0.50;0.50;;;28.60;60.30;;;;;;942497;149;27409;-79
2022/09/08 10:16:27;;;;;;;2.80;0.70;;;28.20;60.50;;;;;;942235;147;27405;-79
2022/09/08 10:19:09;;;;;;;0.50;0.50;;;27.70;61.20;;;;;;943589;149;27865;-79
2022/09/08 10:21:42;;;;;;;0.82;0.82;;;27.30;62.70;;;;;;944417;147;27424;-79
2022/09/08 10:24:17;;;;;;;0.75;0.75;;;27.00;63.90;;;;;;940809;147;27304;-79
2022/09/08 10:27:11;;;;;;;0.98;0.70;;;26.80;64.30;;;;;;944508;147;27324;-80
2022/09/08 10:29:56;;;;;;;1.60;0.70;;;26.70;64.80;;;;;;917423;150;27391;-79
2022/09/08 10:32:41;;;;;;;0.60;0.60;;;26.60;65.40;;;;;;939321;147;27441;-80
2022/09/08 10:35:30;;;;;;;2.15;0.65;;;26.60;64.80;;;;;;944550;147;27278;-79
2022/09/08 10:38:11;;;;;;;0.70;0.60;;;26.60;64.70;;;;;;941930;150;27348;-79
2022/09/08 10:40:38;;;;;;;0.80;0.80;;;26.60;65.10;;;;;;943588;147;27360;-79
2022/09/08 10:43:13;;;;;;;0.40;0.40;;;26.60;64.80;;;;;;944723;147;27351;-79
2022/09/08 10:45:43;;;;;;;1.17;0.82;;;26.60;64.30;;;;;;936746;149;27990;-79
2022/09/08 10:48:31;;;;;;;0.70;0.70;;;26.60;64.50;;;;;;943931;147;27322;-79
2022/09/08 10:51:22;;;;;;;3.58;1.00;;;26.70;64.20;;;;;;942521;149;27315;-79
2022/09/08 10:53:54;;;;;;;0.75;0.50;;;26.70;63.40;;;;;;941662;147;27406;-79
2022/09/08 10:56:26;;;;;;;0.62;0.42;;;26.70;63.30;;;;;;945895;147;27315;-79
2022/09/08 10:59:21;;;;;;;0.78;0.75;;;26.70;63.50;;;;;;944687;147;27393;-79
2022/09/08 11:02:15;;;;;;;0.55;0.50;;;26.60;63.10;;;;;;942177;147;27328;-79
2022/09/08 11:04:50;;;;;;;0.82;0.60;;;26.60;62.50;;;;;;943503;149;27655;-80
2022/09/08 11:07:35;;;;;;;0.95;0.40;;;26.60;62.50;;;;;;942699;147;27321;-79
2022/09/08 11:10:26;;;;;;;0.70;0.50;;;26.50;62.90;;;;;;943632;147;27312;-79
2022/09/08 11:13:27;;;;;;;0.30;0.30;;;26.50;63.20;;;;;;943313;147;27481;-79
2022/09/08 11:16:11;;;;;;;1.17;0.78;;;26.60;63.20;;;;;;945760;147;27670;-79
2022/09/08 11:18:44;;;;;;;0.55;0.53;;;26.70;62.40;;;;;;942649;149;27465;-79
2022/09/08 11:21:16;;;;;;;0.70;0.40;;;26.80;61.70;;;;;;943379;147;27372;-79
2022/09/08 11:23:52;;;;;;;0.60;0.30;;;26.80;61.20;;;;;;944989;150;27555;-79
2022/09/08 11:26:33;;;;;;;0.47;0.47;;;26.90;60.20;;;;;;943364;147;27401;-79
2022/09/08 11:29:11;;;;;;;0.47;0.40;;;26.90;60.30;;;;;;944318;147;27402;-79
2022/09/08 11:31:53;;;;;;;0.55;0.40;;;26.90;59.60;;;;;;943508;150;27430;-79
2022/09/08 11:34:56;;;;;;;0.40;0.40;;;26.90;59.40;;;;;;897556;154;27473;-79
2022/09/08 11:37:28;;;;;;;0.68;0.45;;;26.80;59.60;;;;;;940027;147;27400;-79
2022/09/08 11:40:08;;;;;;;0.68;0.33;;;26.80;59.50;;;;;;942922;149;27317;-79
2022/09/08 11:42:40;;;;;;;1.52;0.33;;;26.80;59.70;;;;;;915051;149;27411;-79
2022/09/08 11:45:09;;;;;;;0.30;0.23;;;26.70;59.60;;;;;;942384;150;27403;-79
2022/09/08 11:47:41;;;;;;;0.82;0.37;;;26.80;59.90;;;;;;938423;147;27457;-79
2022/09/08 11:50:11;;;;;;;0.95;0.53;;;26.80;59.60;;;;;;943896;147;27292;-79
2022/09/08 11:52:59;;;;;;;1.15;0.45;;;26.80;59.10;;;;;;944090;148;27351;-79
2022/09/08 11:55:46;;;;;;;1.37;0.57;;;26.80;59.20;;;;;;933928;149;27436;-79
2022/09/08 11:58:37;;;;;;;0.23;0.23;;;26.70;59.10;;;;;;942062;147;27383;-80
2022/09/08 12:01:12;;;;;;;0.57;0.47;;;26.60;59.00;;;;;;946653;147;27456;-80
2022/09/08 12:04:16;;;;;;;0.50;0.42;;;26.60;59.30;;;;;;938383;147;27453;-80
2022/09/08 12:06:58;;;;;;;0.78;0.50;;;26.60;59.60;;;;;;943992;147;27461;-80
2022/09/08 12:09:48;;;;;;;0.60;0.60;;;26.60;59.40;;;;;;942994;147;27477;-80
2022/09/08 12:12:33;;;;;;;0.55;0.40;;;26.60;59.10;;;;;;943331;147;27828;-80
2022/09/08 12:15:03;;;;;;;0.70;0.37;;;26.70;58.90;;;;;;944107;150;27350;-80
2022/09/08 12:17:38;;;;;;;1.22;0.70;;;26.70;58.60;;;;;;941343;147;27444;-80
2022/09/08 12:20:26;;;;;;;0.55;0.50;;;26.70;58.40;;;;;;949386;147;27414;-79
2022/09/08 12:22:53;;;;;;;0.60;0.60;;;26.80;58.00;;;;;;956040;146;27378;-80
2022/09/08 12:25:56;;;;;;;0.57;0.40;;;26.90;57.50;;;;;;921904;148;27465;-80
2022/09/08 12:28:26;;;;;;;0.50;0.50;;;26.90;57.20;;;;;;955210;146;27497;-80
2022/09/08 12:31:20;;;;;;;1.32;0.88;;;26.90;57.10;;;;;;951806;146;27342;-80
2022/09/08 12:33:52;;;;;;;0.75;0.40;;;26.90;57.00;;;;;;954572;145;27338;-80
2022/09/08 12:36:22;;;;;;;1.22;0.60;;;26.80;57.30;;;;;;955804;148;27361;-80
2022/09/08 12:39:07;;;;;;;2.47;0.70;;;26.70;56.80;;;;;;953922;146;27946;-80
2022/09/08 12:41:36;;;;;;;0.40;0.37;;;26.70;56.90;;;;;;953464;146;27374;-80
2022/09/08 12:44:08;;;;;;;0.57;0.35;;;26.70;57.00;;;;;;953602;148;27475;-79
2022/09/08 12:46:50;;;;;;;0.53;0.20;;;26.70;56.80;;;;;;951132;148;27407;-79
2022/09/08 12:49:35;;;;;;;0.82;0.40;;;26.70;56.90;;;;;;955100;146;27294;-79
2022/09/08 12:52:02;;;;;;;0.40;0.40;;;26.70;56.60;;;;;;952213;148;27326;-79
2022/09/08 12:54:37;;;;;;;0.40;0.37;;;26.70;56.70;;;;;;954175;148;27436;-80
2022/09/08 12:57:15;;;;;;;1.22;0.53;;;26.70;56.40;;;;;;956512;148;27378;-80
2022/09/08 13:00:12;;;;;;;1.15;0.55;;;26.70;56.30;;;;;;954864;148;27338;-80
2022/09/08 13:02:53;;;;;;;0.50;0.40;;;26.70;55.60;;;;;;953382;148;27314;-80
2022/09/08 13:05:44;;;;;;;0.65;0.50;;;26.60;55.90;;;;;;953456;145;27375;-80
2022/09/08 13:08:48;;;;;;;0.85;0.70;;;26.60;56.00;;;;;;956200;146;27334;-80
2022/09/08 13:11:39;;;;;;;0.72;0.72;;;26.70;56.30;;;;;;955318;145;27307;-79
2022/09/08 13:14:06;;;;;;;1.02;0.40;;;26.60;56.00;;;;;;954099;148;27742;-79
2022/09/08 13:16:50;;;;;;;0.70;0.47;;;26.60;56.00;;;;;;954189;145;27308;-79
2022/09/08 13:19:26;;;;;;;0.82;0.40;;;26.60;56.30;;;;;;955205;146;27372;-79
2022/09/08 13:22:11;;;;;;;4.35;0.90;;;26.50;55.70;;;;;;936360;148;27523;-79
2022/09/08 13:24:52;;;;;;;1.50;0.47;;;26.40;55.40;;;;;;937078;148;27337;-80